Time;durP1;ratioP1;P1;durP2;ratioP2;P2;SDS_P1;SDS_P2;PMS_P1;PMS_P2;Temp;Humidity;BMP_temperature;BMP_pressure;BME280_temperature;BME280_humidity;BME280_pressure;Samples;Min_cycle;Max_cycle;Signal;HPM_P1;HPM_P2
2023/10/17 00:00:12;;;;;;;4.72;2.83;;;;;;;-0.05;100.00;97457.13;5038831;28;20041;-63
2023/10/17 00:02:40;;;;;;;5.88;3.10;;;;;;;-0.47;100.00;97462.00;5033859;28;20677;-62
2023/10/17 00:05:13;;;;;;;6.80;3.40;;;;;;;-0.47;100.00;97462.84;5033163;28;20525;-63
2023/10/17 00:07:45;;;;;;;10.02;3.42;;;;;;;-0.56;100.00;97455.91;5037751;28;20123;-63
2023/10/17 00:10:17;;;;;;;5.53;2.80;;;;;;;-0.69;100.00;97449.38;5040587;28;21463;-62
2023/10/17 00:12:46;;;;;;;10.75;4.68;;;;;;;-0.72;100.00;97438.25;5043966;28;20404;-63
2023/10/17 00:17:51;;;;;;;6.85;3.65;;;;;;;-0.49;100.00;97424.94;5042807;28;20111;-62
2023/10/17 00:20:18;;;;;;;5.20;2.88;;;;;;;-0.44;100.00;97419.91;5033388;28;20053;-62
2023/10/17 00:22:44;;;;;;;6.03;3.25;;;;;;;-0.37;100.00;97405.91;5029103;28;20111;-62
2023/10/17 00:25:11;;;;;;;9.43;3.03;;;;;;;-0.31;100.00;97399.84;5035416;28;20033;-61
2023/10/17 00:27:37;;;;;;;7.63;3.05;;;;;;;-0.43;100.00;97394.97;5043634;28;20045;-62
2023/10/17 00:30:04;;;;;;;6.63;2.83;;;;;;;-0.44;100.00;97393.31;5044526;28;20049;-62
2023/10/17 00:32:33;;;;;;;4.68;2.50;;;;;;;-0.45;100.00;97401.47;5036438;28;20511;-62
2023/10/17 00:35:07;;;;;;;6.13;3.33;;;;;;;-0.67;100.00;97394.19;5034301;28;20050;-62
2023/10/17 00:37:37;;;;;;;6.95;3.35;;;;;;;-0.74;100.00;97387.91;5047390;28;20064;-62
2023/10/17 00:40:05;;;;;;;7.05;2.95;;;;;;;-0.74;100.00;97390.56;5048708;28;20041;-62
2023/10/17 00:42:34;;;;;;;4.63;2.53;;;;;;;-0.74;100.00;97387.09;5040039;28;20046;-62
2023/10/17 00:45:01;;;;;;;6.00;3.33;;;;;;;-0.75;100.00;97383.59;5046713;28;20037;-62
2023/10/17 00:47:28;;;;;;;7.03;3.58;;;;;;;-0.73;100.00;97378.94;5044261;28;20092;-62
2023/10/17 00:49:59;;;;;;;7.70;3.40;;;;;;;-0.64;100.00;97382.34;5036482;28;20033;-62
2023/10/17 00:52:29;;;;;;;4.72;2.72;;;;;;;-0.82;100.00;97378.19;5045917;28;20824;-62
2023/10/17 00:54:57;;;;;;;4.72;2.60;;;;;;;-0.77;100.00;97385.63;5047553;28;20061;-62
2023/10/17 00:57:26;;;;;;;5.22;2.50;;;;;;;-0.83;100.00;97386.34;5038235;28;20111;-61
2023/10/17 01:00:08;;;;;;;4.28;2.63;;;;;;;-0.84;100.00;97369.56;5041528;28;20059;-62
2023/10/17 01:02:44;;;;;;;7.50;2.80;;;;;;;-0.79;100.00;97380.50;5042451;28;20041;-62
2023/10/17 01:05:12;;;;;;;4.25;2.30;;;;;;;-0.88;100.00;97376.25;5039813;28;20114;-61
2023/10/17 01:07:40;;;;;;;5.82;2.97;;;;;;;-0.97;100.00;97372.81;5038428;28;20060;-62
2023/10/17 01:10:11;;;;;;;6.22;2.67;;;;;;;-0.99;100.00;97372.16;5045854;28;20036;-61
2023/10/17 01:12:49;;;;;;;5.32;2.85;;;;;;;-0.93;100.00;97375.94;5040051;28;20508;-61
2023/10/17 01:15:28;;;;;;;6.95;3.15;;;;;;;-0.83;100.00;97381.84;5044236;28;20047;-61
2023/10/17 01:18:03;;;;;;;5.75;3.08;;;;;;;-0.69;100.00;97376.75;5044322;28;20047;-62
2023/10/17 01:20:31;;;;;;;6.03;2.58;;;;;;;-0.75;100.00;97370.31;5041604;28;20048;-62
2023/10/17 01:23:00;;;;;;;5.05;2.78;;;;;;;-0.84;100.00;97374.88;5046311;28;20051;-61
2023/10/17 01:25:29;;;;;;;5.97;2.85;;;;;;;-0.87;100.00;97377.06;5047484;28;20045;-62
2023/10/17 01:27:57;;;;;;;5.45;2.92;;;;;;;-0.89;100.00;97374.56;5043497;28;20051;-62
2023/10/17 01:30:29;;;;;;;6.70;3.55;;;;;;;-0.94;100.00;97367.16;5045974;28;20522;-62
2023/10/17 01:32:57;;;;;;;6.00;3.20;;;;;;;-0.94;100.00;97363.66;5041774;28;20045;-61
2023/10/17 01:35:25;;;;;;;5.40;3.03;;;;;;;-0.85;100.00;97367.91;5043375;28;20044;-62
2023/10/17 01:37:52;;;;;;;6.10;3.22;;;;;;;-0.89;100.00;97366.59;5043312;28;20045;-62
2023/10/17 01:40:22;;;;;;;5.30;3.22;;;;;;;-0.95;100.00;97373.44;5045284;28;20040;-62
2023/10/17 01:42:51;;;;;;;4.97;2.88;;;;;;;-0.79;100.00;97377.00;5048464;28;20131;-62
2023/10/17 01:45:21;;;;;;;8.70;3.92;;;;;;;-0.83;100.00;97373.88;5015159;28;21630;-62
2023/10/17 01:47:48;;;;;;;10.45;3.35;;;;;;;-1.00;100.00;97375.00;5008513;28;20513;-62
2023/10/17 01:50:14;;;;;;;5.13;3.03;;;;;;;-0.95;100.00;97368.13;5010435;28;20590;-62
2023/10/17 01:52:42;;;;;;;5.38;2.78;;;;;;;-1.00;100.00;97367.84;5035401;28;20041;-62
2023/10/17 01:55:13;;;;;;;5.80;3.40;;;;;;;-0.98;100.00;97367.69;5044349;28;20049;-62
2023/10/17 01:57:46;;;;;;;6.05;2.45;;;;;;;-0.91;100.00;97363.31;5047428;28;20094;-62
2023/10/17 02:03:00;;;;;;;5.95;3.10;;;;;;;-0.77;100.00;97358.22;5059134;28;20045;-62
2023/10/17 02:05:27;;;;;;;6.95;3.20;;;;;;;-0.73;100.00;97356.84;5043042;28;20064;-61
2023/10/17 02:07:54;;;;;;;8.40;3.25;;;;;;;-0.73;100.00;97359.50;5046670;28;20040;-62
2023/10/17 02:10:21;;;;;;;7.53;3.38;;;;;;;-0.48;100.00;97348.63;5036015;28;20037;-61
2023/10/17 02:12:48;;;;;;;5.55;3.13;;;;;;;-0.61;100.00;97352.75;5042178;28;20060;-62
2023/10/17 02:15:19;;;;;;;6.72;3.38;;;;;;;-0.78;100.00;97352.06;5033832;28;20067;-61
2023/10/17 02:17:47;;;;;;;6.50;3.53;;;;;;;-0.82;100.00;97358.72;5045269;28;20459;-61
2023/10/17 02:23:01;;;;;;;6.53;3.47;;;;;;;-0.75;100.00;97365.00;5035445;28;20041;-62
2023/10/17 02:25:32;;;;;;;7.32;3.35;;;;;;;-0.82;100.00;97353.41;5038054;28;20051;-61
2023/10/17 02:28:00;;;;;;;8.00;3.72;;;;;;;-0.76;100.00;97367.84;5044310;28;20041;-61
2023/10/17 02:30:27;;;;;;;6.55;3.88;;;;;;;-0.51;100.00;97378.25;5046810;28;20039;-61
2023/10/17 02:32:53;;;;;;;6.22;3.45;;;;;;;-0.43;100.00;97372.84;5040673;28;20098;-62
2023/10/17 02:35:28;;;;;;;8.40;3.15;;;;;;;-0.82;100.00;97369.38;5034184;28;20040;-61
2023/10/17 02:37:58;;;;;;;6.38;3.70;;;;;;;-0.99;100.00;97377.47;5037942;28;20041;-62
2023/10/17 02:40:25;;;;;;;8.23;3.80;;;;;;;-0.97;100.00;97383.44;5044607;28;21528;-61
2023/10/17 02:42:52;;;;;;;8.70;4.13;;;;;;;-0.90;100.00;97386.22;5040627;28;20063;-63
2023/10/17 02:45:24;;;;;;;7.72;3.88;;;;;;;-0.88;100.00;97381.56;5040143;28;20476;-62
2023/10/17 02:47:57;;;;;;;8.48;3.70;;;;;;;-0.85;100.00;97391.81;5041762;28;20041;-62
2023/10/17 02:50:47;;;;;;;9.10;3.45;;;;;;;-0.80;100.00;97391.31;5041800;28;20681;-62
2023/10/17 02:53:14;;;;;;;11.23;3.60;;;;;;;-0.73;100.00;97378.94;5042130;28;20180;-62
2023/10/17 02:55:40;;;;;;;6.53;2.97;;;;;;;-0.70;100.00;97375.91;5044704;28;20041;-62
2023/10/17 02:58:07;;;;;;;6.45;3.60;;;;;;;-0.72;100.00;97371.78;5038237;28;20190;-62
2023/10/17 03:00:34;;;;;;;6.88;3.50;;;;;;;-0.68;100.00;97370.41;5046448;28;20416;-62
2023/10/17 03:03:12;;;;;;;6.57;3.63;;;;;;;-0.48;100.00;97369.91;5037280;28;20666;-62
2023/10/17 03:05:41;;;;;;;6.22;3.67;;;;;;;-0.35;100.00;97369.28;5035446;28;20123;-62
2023/10/17 03:08:17;;;;;;;7.65;3.95;;;;;;;-0.30;100.00;97353.59;5035446;28;20696;-62
2023/10/17 03:10:44;;;;;;;6.90;3.90;;;;;;;-0.37;100.00;97352.69;5034347;28;20056;-62
2023/10/17 03:15:48;;;;;;;5.93;3.20;;;;;;;-0.54;100.00;97356.34;5038647;28;20037;-62
2023/10/17 03:18:16;;;;;;;7.40;3.77;;;;;;;-0.59;100.00;97347.25;5043863;28;20053;-62
2023/10/17 03:20:50;;;;;;;7.75;4.32;;;;;;;-0.69;100.00;97348.34;5039667;28;20033;-62
2023/10/17 03:23:28;;;;;;;7.07;3.80;;;;;;;-0.48;100.00;97346.78;5039367;28;20412;-62
2023/10/17 03:26:01;;;;;;;7.05;4.28;;;;;;;-0.51;100.00;97339.19;5040626;28;20418;-61
2023/10/17 03:28:33;;;;;;;7.38;3.55;;;;;;;-0.46;100.00;97349.28;5043420;28;20037;-63
2023/10/17 03:31:00;;;;;;;6.15;3.58;;;;;;;-0.42;100.00;97350.56;5040909;28;20056;-62
2023/10/17 03:33:32;;;;;;;8.07;3.30;;;;;;;-0.33;100.00;97361.97;5042671;28;20065;-61
2023/10/17 03:38:31;;;;;;;7.13;3.38;;;;;;;-0.27;100.00;97363.88;5035549;28;19925;-62
2023/10/17 03:41:07;;;;;;;5.82;3.63;;;;;;;-0.33;100.00;97352.13;5043216;28;20041;-62
2023/10/17 03:43:39;;;;;;;6.95;3.72;;;;;;;-0.37;100.00;97352.69;5043722;28;20224;-62
2023/10/17 03:46:07;;;;;;;7.80;4.22;;;;;;;-0.40;100.00;97352.03;5045050;28;20041;-62
2023/10/17 03:48:36;;;;;;;8.05;4.10;;;;;;;-0.47;100.00;97359.09;5033309;28;20037;-61
2023/10/17 03:51:08;;;;;;;10.07;4.60;;;;;;;-0.43;100.00;97363.06;5038599;28;20037;-62
2023/10/17 03:53:42;;;;;;;6.50;3.58;;;;;;;-0.37;100.00;97372.13;5034454;28;20037;-61
2023/10/17 03:56:11;;;;;;;10.43;4.47;;;;;;;-0.32;100.00;97363.59;5034025;28;20044;-62
2023/10/17 03:58:49;;;;;;;10.20;4.93;;;;;;;-0.43;100.00;97362.22;5036163;28;20045;-61
2023/10/17 04:01:18;;;;;;;8.95;4.32;;;;;;;-0.40;100.00;97378.63;5042284;28;20114;-61
2023/10/17 04:03:46;;;;;;;9.68;3.85;;;;;;;-0.35;100.00;97354.16;5036223;28;20660;-61
2023/10/17 04:08:48;;;;;;;8.27;4.22;;;;;;;-0.09;100.00;97360.03;5034789;28;20104;-62
2023/10/17 04:13:55;;;;;;;7.82;4.13;;;;;;;0.01;100.00;97351.75;5045516;28;20780;-62
2023/10/17 04:16:34;;;;;;;6.50;3.90;;;;;;;-0.03;100.00;97354.78;5041984;28;20048;-62
2023/10/17 04:19:17;;;;;;;8.10;4.35;;;;;;;-0.04;100.00;97355.00;5041479;28;20045;-63
2023/10/17 04:21:49;;;;;;;11.25;4.55;;;;;;;0.03;100.00;97350.56;5043392;28;20049;-62
2023/10/17 04:24:26;;;;;;;;;;;;;;;0.13;100.00;97339.63;5044377;28;20105;-63
2023/10/17 04:27:06;;;;;;;8.00;4.05;;;;;;;0.37;100.00;97346.47;5042839;28;19924;-62
2023/10/17 04:29:34;;;;;;;9.38;3.97;;;;;;;0.69;100.00;97334.72;5044437;28;20092;-62
2023/10/17 04:32:01;;;;;;;10.57;5.32;;;;;;;0.77;100.00;97322.09;5037749;28;20037;-63
2023/10/17 04:34:29;;;;;;;9.10;4.97;;;;;;;0.62;100.00;97319.50;5040714;28;20118;-63
2023/10/17 04:36:56;;;;;;;8.02;4.68;;;;;;;0.65;100.00;97315.63;5041471;28;20095;-63
2023/10/17 04:44:23;;;;;;;6.57;3.97;;;;;;;0.58;100.00;97312.06;5052029;28;20040;-63
2023/10/17 04:46:50;;;;;;;;;;;;;;;0.37;100.00;97308.38;5043027;28;20087;-63
2023/10/17 04:49:19;;;;;;;7.53;4.05;;;;;;;0.45;100.00;97307.44;5045667;28;19928;-63
2023/10/17 04:51:45;;;;;;;9.52;4.28;;;;;;;0.48;100.00;97315.06;5038825;28;20045;-62
2023/10/17 04:57:04;;;;;;;11.38;4.97;;;;;;;0.39;100.00;97311.66;5047250;28;20037;-62
2023/10/17 06:19:15;;;;;;;9.05;5.35;;;;;;;1.98;100.00;97317.84;5044993;28;20524;-62
2023/10/17 06:34:33;;;;;;;8.30;5.32;;;;;;;2.17;100.00;97349.16;5033426;28;20083;-62
2023/10/17 06:37:07;;;;;;;8.27;4.55;;;;;;;2.27;100.00;97350.63;5042046;28;20068;-61
2023/10/17 06:39:37;;;;;;;9.32;5.18;;;;;;;2.33;100.00;97352.53;5043375;28;20920;-61
2023/10/17 06:42:29;;;;;;;8.80;4.95;;;;;;;2.29;100.00;97361.97;5045159;28;20037;-62
2023/10/17 06:44:54;;;;;;;7.82;4.80;;;;;;;2.35;100.00;97355.81;5051038;28;20120;-62
2023/10/17 06:47:30;;;;;;;11.95;5.20;;;;;;;2.36;100.00;97352.09;5046446;28;20043;-61
2023/10/17 06:55:28;;;;;;;9.05;5.53;;;;;;;2.52;100.00;97347.44;5028960;28;20045;-62
2023/10/17 06:57:57;;;;;;;8.88;5.28;;;;;;;2.54;100.00;97348.09;5043435;28;20049;-62
2023/10/17 07:00:25;;;;;;;9.65;5.40;;;;;;;2.76;100.00;97346.06;5037881;28;20044;-62
2023/10/17 07:02:56;;;;;;;7.30;4.95;;;;;;;2.83;100.00;97346.91;5042051;28;20041;-62
2023/10/17 07:05:26;;;;;;;10.95;5.88;;;;;;;2.93;100.00;97333.16;5045401;28;20044;-63
2023/10/17 07:07:53;;;;;;;8.93;5.28;;;;;;;3.01;100.00;97336.63;5038961;28;20125;-62
2023/10/17 07:13:28;;;;;;;9.88;5.88;;;;;;;3.03;100.00;97327.41;5046589;28;20118;-62
2023/10/17 07:15:54;;;;;;;9.43;5.43;;;;;;;3.00;100.00;97325.13;5037534;28;20045;-62
2023/10/17 07:18:44;;;;;;;9.85;5.05;;;;;;;2.98;100.00;97328.00;5044087;28;20048;-62
2023/10/17 07:23:45;;;;;;;10.20;5.28;;;;;;;3.03;100.00;97321.22;5039438;28;20404;-62
2023/10/17 07:28:57;;;;;;;9.45;5.35;;;;;;;3.29;100.00;97323.09;5036423;28;20108;-62
2023/10/17 07:31:24;;;;;;;9.48;5.68;;;;;;;3.44;100.00;97322.03;5039080;28;20094;-62
2023/10/17 07:34:37;;;;;;;9.25;5.60;;;;;;;3.64;100.00;97322.00;5045148;28;20041;-62
2023/10/17 07:36:38;;;;;;;10.80;6.38;;;;;;;3.81;100.00;97319.72;5036908;28;20053;-62
2023/10/17 07:39:21;;;;;;;13.00;5.97;;;;;;;3.87;100.00;97323.44;5035809;28;20128;-61
2023/10/17 07:41:54;;;;;;;10.57;6.22;;;;;;;4.06;100.00;97313.69;5036776;28;20041;-62
2023/10/17 07:44:29;;;;;;;11.88;6.03;;;;;;;4.18;100.00;97313.00;5046893;28;20504;-62
2023/10/17 07:49:42;;;;;;;11.55;5.90;;;;;;;4.52;100.00;97313.69;5041605;28;20420;-62
2023/10/17 07:52:12;;;;;;;10.85;6.50;;;;;;;4.69;100.00;97314.03;5044163;28;20032;-62
2023/10/17 07:57:36;;;;;;;10.50;6.30;;;;;;;4.94;100.00;97313.25;5039009;28;20083;-62
2023/10/17 08:00:24;;;;;;;10.77;6.55;;;;;;;4.91;100.00;97314.47;5044192;28;20052;-62
2023/10/17 08:02:51;;;;;;;11.00;6.47;;;;;;;4.98;100.00;97298.38;5041846;28;20103;-62
2023/10/17 08:05:23;;;;;;;10.35;6.38;;;;;;;5.14;99.48;97296.16;5041741;28;20049;-62
2023/10/17 08:07:49;;;;;;;11.60;6.38;;;;;;;5.18;97.83;97303.56;5043333;28;20451;-61
2023/10/17 08:10:29;;;;;;;11.70;6.10;;;;;;;5.37;98.75;97303.63;5046841;28;20041;-62
2023/10/17 08:12:57;;;;;;;11.90;6.70;;;;;;;5.47;97.27;97295.06;5044852;28;20045;-61
2023/10/17 08:15:38;;;;;;;11.40;6.80;;;;;;;5.51;97.84;97309.69;5040974;28;21267;-61
2023/10/17 08:18:14;;;;;;;10.88;6.28;;;;;;;5.57;96.82;97302.63;5040151;28;20048;-62
2023/10/17 08:20:54;;;;;;;10.00;6.68;;;;;;;5.52;96.31;97300.59;5038491;28;20405;-62
2023/10/17 08:23:22;;;;;;;12.05;6.28;;;;;;;5.65;96.44;97296.13;5045113;28;20049;-62
2023/10/17 08:25:56;;;;;;;11.27;6.88;;;;;;;5.68;95.44;97301.88;5039412;28;20041;-62
2023/10/17 08:34:08;;;;;;;12.00;7.03;;;;;;;5.82;96.78;97299.06;5043375;28;20151;-62
2023/10/17 08:42:12;;;;;;;13.32;7.60;;;;;;;5.98;95.97;97294.97;5013949;28;20133;-62
2023/10/17 08:44:46;;;;;;;17.13;8.35;;;;;;;5.97;94.94;97296.81;5046073;28;20041;-62
2023/10/17 08:47:16;;;;;;;15.00;8.07;;;;;;;6.04;93.51;97296.78;5044207;28;20057;-62
2023/10/17 08:49:44;;;;;;;13.63;8.13;;;;;;;6.03;94.98;97310.41;5040927;28;20041;-62
2023/10/17 08:52:26;;;;;;;11.98;7.28;;;;;;;6.11;94.11;97302.91;5042384;28;20037;-62
2023/10/17 08:54:56;;;;;;;15.52;7.25;;;;;;;6.14;94.61;97308.88;5038318;28;20041;-62
2023/10/17 08:57:24;;;;;;;17.00;7.95;;;;;;;6.05;94.51;97309.16;5050347;28;20095;-62
2023/10/17 09:00:23;;;;;;;13.77;7.38;;;;;;;6.29;94.35;97303.09;5046505;28;20103;-62
2023/10/17 09:02:43;;;;;;;10.95;6.47;;;;;;;6.58;93.71;97303.38;5048972;28;20044;-62
2023/10/17 09:05:18;;;;;;;14.10;7.30;;;;;;;6.68;92.58;97292.06;5045361;28;20435;-62
2023/10/17 09:07:45;;;;;;;13.63;7.15;;;;;;;6.62;92.60;97291.94;5041105;28;20041;-62
2023/10/17 09:15:57;;;;;;;13.40;7.22;;;;;;;7.24;90.10;97281.91;5041899;28;20033;-62
2023/10/17 09:18:28;;;;;;;12.82;7.20;;;;;;;7.31;89.02;97279.09;5048900;28;20040;-62
2023/10/17 09:20:56;;;;;;;12.35;7.55;;;;;;;7.19;88.59;97281.75;5047951;28;20524;-62
2023/10/17 09:23:28;;;;;;;11.95;6.85;;;;;;;7.12;89.39;97286.44;5046245;28;20465;-62
2023/10/17 09:25:58;;;;;;;10.38;6.72;;;;;;;7.30;89.19;97293.63;5049823;28;20562;-62
2023/10/17 09:28:25;;;;;;;12.57;7.15;;;;;;;7.30;87.24;97290.94;5044998;28;20411;-62
2023/10/17 09:31:01;;;;;;;15.05;6.70;;;;;;;7.52;87.01;97293.03;5045866;28;20072;-62
2023/10/17 09:33:30;;;;;;;12.18;6.80;;;;;;;7.62;87.15;97287.03;5044744;28;20070;-62
2023/10/17 09:36:00;;;;;;;13.52;6.95;;;;;;;7.60;88.19;97286.47;5045682;28;20045;-62
2023/10/17 09:38:29;;;;;;;10.55;6.20;;;;;;;7.62;87.48;97289.75;5047132;28;20051;-62
2023/10/17 09:41:03;;;;;;;10.63;5.95;;;;;;;7.40;87.90;97291.16;5045664;28;20646;-62
2023/10/17 09:43:45;;;;;;;13.32;6.57;;;;;;;7.37;88.75;97291.63;5045894;28;20037;-63
2023/10/17 09:46:13;;;;;;;13.02;6.72;;;;;;;7.49;88.38;97288.91;5048448;28;20048;-62
2023/10/17 09:48:42;;;;;;;11.93;6.30;;;;;;;7.39;88.53;97296.78;5039909;28;20144;-63
2023/10/17 09:51:24;;;;;;;11.23;5.82;;;;;;;7.58;88.39;97291.25;5046331;28;20479;-62
2023/10/17 09:53:58;;;;;;;10.55;5.97;;;;;;;7.52;88.42;97290.34;5041627;28;20531;-62
2023/10/17 09:56:41;;;;;;;13.65;7.25;;;;;;;7.76;88.25;97285.75;5045423;28;20036;-62
2023/10/17 09:59:12;;;;;;;11.07;6.28;;;;;;;7.77;86.97;97297.34;5047248;28;20044;-62
2023/10/17 10:01:41;;;;;;;11.27;7.03;;;;;;;7.66;87.67;97299.81;5034653;28;20567;-61
2023/10/17 10:04:08;;;;;;;14.48;6.75;;;;;;;7.51;88.29;97296.78;5047431;28;20799;-62
2023/10/17 10:06:36;;;;;;;11.25;6.82;;;;;;;7.67;88.42;97300.66;5045185;28;20672;-62
2023/10/17 10:09:13;;;;;;;14.55;7.57;;;;;;;7.80;88.39;97299.56;5041193;28;20651;-63
2023/10/17 10:11:48;;;;;;;13.25;6.85;;;;;;;7.90;87.87;97296.28;5038442;28;20120;-62
2023/10/17 10:14:36;;;;;;;14.00;7.15;;;;;;;8.01;87.54;97300.88;5035645;28;20073;-62
2023/10/17 10:17:03;;;;;;;17.65;7.85;;;;;;;8.13;86.14;97298.13;5042629;28;20068;-62
2023/10/17 10:19:43;;;;;;;13.25;7.53;;;;;;;8.14;85.14;97288.97;5041129;28;20097;-62
2023/10/17 10:22:12;;;;;;;11.60;7.00;;;;;;;8.26;84.65;97290.84;5038809;28;20037;-62
2023/10/17 10:24:40;;;;;;;11.43;6.80;;;;;;;8.32;84.75;97289.88;5043942;28;20694;-62
2023/10/17 10:27:10;;;;;;;12.00;7.32;;;;;;;8.33;84.26;97280.69;5041167;28;20757;-62
2023/10/17 10:29:40;;;;;;;14.20;7.13;;;;;;;8.46;84.01;97291.25;5042053;28;20065;-62
2023/10/17 10:32:25;;;;;;;16.70;7.68;;;;;;;8.37;83.86;97286.47;5045734;28;20052;-62
2023/10/17 10:34:53;;;;;;;13.55;7.57;;;;;;;8.48;83.57;97280.22;5044586;28;20492;-62
2023/10/17 10:37:22;;;;;;;14.88;7.03;;;;;;;8.37;83.65;97283.75;5044048;28;20534;-62
2023/10/17 10:40:22;;;;;;;11.32;6.55;;;;;;;8.37;84.50;97275.66;5038065;28;20671;-62
2023/10/17 10:42:50;;;;;;;11.35;6.93;;;;;;;8.29;84.74;97283.06;5045771;28;20049;-61
2023/10/17 10:45:35;;;;;;;11.77;7.32;;;;;;;8.22;84.04;97278.88;5039214;28;20087;-62
2023/10/17 10:48:09;;;;;;;12.65;6.82;;;;;;;8.23;84.55;97286.75;5046289;28;20044;-61
2023/10/17 10:50:41;;;;;;;14.63;7.05;;;;;;;8.33;84.75;97288.81;5042549;28;21335;-61
2023/10/17 10:53:19;;;;;;;14.23;7.00;;;;;;;8.34;84.24;97287.75;5042090;28;20045;-61
2023/10/17 10:55:52;;;;;;;14.60;7.53;;;;;;;8.40;83.62;97283.28;5041208;28;20041;-61
2023/10/17 10:58:19;;;;;;;14.77;7.97;;;;;;;8.53;83.48;97276.81;5043932;28;20044;-61
2023/10/17 11:00:46;;;;;;;13.18;7.28;;;;;;;8.70;82.73;97271.47;5047119;28;20028;-61
2023/10/17 11:03:13;;;;;;;11.82;7.47;;;;;;;8.96;81.75;97278.13;5047003;28;20502;-62
2023/10/17 11:06:03;;;;;;;13.57;8.00;;;;;;;8.93;81.87;97284.03;5046727;28;20045;-62
2023/10/17 11:08:43;;;;;;;13.55;7.30;;;;;;;8.89;82.29;97277.47;5047905;28;20407;-62
2023/10/17 11:11:14;;;;;;;13.57;7.45;;;;;;;9.00;82.27;97291.97;5045569;28;20043;-62
2023/10/17 11:13:45;;;;;;;13.07;7.45;;;;;;;8.94;81.76;97282.97;5047814;28;20727;-62
2023/10/17 11:16:19;;;;;;;11.93;7.83;;;;;;;8.96;80.86;97280.81;5038299;28;20068;-62
2023/10/17 11:18:47;;;;;;;14.07;7.63;;;;;;;8.83;81.77;97279.25;5036093;28;20283;-62
2023/10/17 11:21:20;;;;;;;15.88;8.23;;;;;;;8.64;81.80;97275.94;5047852;28;20061;-62
2023/10/17 11:23:54;;;;;;;13.40;7.43;;;;;;;8.61;82.46;97276.41;5044934;28;20118;-62
2023/10/17 11:26:28;;;;;;;16.00;8.30;;;;;;;8.76;81.47;97267.78;5038593;28;20056;-61
2023/10/17 11:28:57;;;;;;;12.02;7.88;;;;;;;8.89;81.71;97269.38;5039766;28;20048;-62
2023/10/17 11:31:25;;;;;;;14.85;7.70;;;;;;;9.04;80.86;97267.97;5042422;28;20047;-62
2023/10/17 11:34:02;;;;;;;14.07;8.02;;;;;;;9.00;80.33;97262.25;5043062;28;20045;-62
2023/10/17 11:36:35;;;;;;;13.02;7.60;;;;;;;8.95;81.03;97265.69;5047660;28;20040;-61
2023/10/17 11:39:07;;;;;;;14.25;7.75;;;;;;;8.92;80.91;97262.66;5042124;28;20500;-62
2023/10/17 11:42:00;;;;;;;12.30;7.88;;;;;;;9.11;80.12;97252.44;5045995;28;20116;-62
2023/10/17 11:44:31;;;;;;;11.55;7.45;;;;;;;9.05;80.60;97251.53;5041019;28;20049;-62
2023/10/17 11:47:02;;;;;;;11.38;7.03;;;;;;;9.26;80.48;97248.34;5045194;28;20685;-62
2023/10/17 11:49:31;;;;;;;15.30;7.40;;;;;;;9.36;80.09;97248.47;5043621;28;20512;-62
2023/10/17 11:52:09;;;;;;;11.48;7.30;;;;;;;9.45;78.92;97243.50;5042844;28;20132;-62
2023/10/17 11:55:03;;;;;;;12.95;7.20;;;;;;;9.55;79.05;97242.81;5040134;28;20067;-62
2023/10/17 11:57:31;;;;;;;13.02;8.10;;;;;;;9.28;79.25;97247.03;5043910;28;20266;-62
2023/10/17 12:02:49;;;;;;;12.60;7.00;;;;;;;9.30;79.51;97250.31;5043024;28;20037;-62
2023/10/17 12:05:21;;;;;;;13.77;8.18;;;;;;;9.25;80.14;97247.50;5042154;28;20046;-61
2023/10/17 12:07:54;;;;;;;;;;;;;;;9.60;79.19;97248.31;5040649;28;20040;-62
2023/10/17 12:10:24;;;;;;;15.00;8.23;;;;;;;9.72;78.58;97224.69;5039240;28;19924;-62
2023/10/17 12:12:59;;;;;;;14.50;8.27;;;;;;;9.76;78.28;97227.69;5044911;28;20053;-62
2023/10/17 12:15:26;;;;;;;14.68;8.30;;;;;;;9.95;78.46;97224.69;5047812;28;20113;-62
2023/10/17 12:17:53;;;;;;;12.88;7.68;;;;;;;10.13;77.28;97223.53;5040896;28;20392;-62
2023/10/17 12:20:25;;;;;;;13.10;7.55;;;;;;;10.13;77.25;97215.44;5040232;28;20057;-61
2023/10/17 12:22:57;;;;;;;12.10;8.43;;;;;;;10.09;77.62;97217.84;5037533;28;20140;-62
2023/10/17 12:25:23;;;;;;;15.68;8.35;;;;;;;9.97;78.75;97204.44;5042313;28;20124;-62
2023/10/17 12:27:52;;;;;;;15.25;8.85;;;;;;;9.93;79.34;97210.59;5041351;28;20041;-62
2023/10/17 12:30:23;;;;;;;15.05;8.90;;;;;;;10.15;79.00;97197.06;5044347;28;20056;-62
2023/10/17 12:32:51;;;;;;;13.38;8.50;;;;;;;10.27;78.74;97200.44;5048194;28;20052;-62
2023/10/17 12:35:21;;;;;;;12.70;9.05;;;;;;;10.38;77.30;97198.66;5044746;28;20500;-62
2023/10/17 12:37:51;;;;;;;13.60;8.15;;;;;;;10.57;76.21;97203.75;5041499;28;20131;-62
2023/10/17 12:40:21;;;;;;;16.10;8.52;;;;;;;10.38;76.18;97204.09;5046410;28;20481;-63
2023/10/17 12:42:52;;;;;;;13.30;7.95;;;;;;;10.13;77.34;97193.78;5055210;28;20039;-62
2023/10/17 12:45:19;;;;;;;17.27;8.95;;;;;;;10.07;77.27;97194.81;5040506;28;20052;-62
2023/10/17 12:47:47;;;;;;;13.63;8.05;;;;;;;9.99;78.56;97187.97;5045576;28;20056;-62
2023/10/17 12:50:15;;;;;;;15.95;8.77;;;;;;;10.09;78.11;97195.34;5039548;28;20042;-62
2023/10/17 12:52:42;;;;;;;16.67;8.57;;;;;;;10.21;78.29;97189.84;5043658;28;20122;-62
2023/10/17 12:55:08;;;;;;;12.77;8.15;;;;;;;10.27;77.21;97192.34;5040456;28;20041;-62
2023/10/17 12:57:38;;;;;;;13.13;7.88;;;;;;;10.20;77.96;97190.88;5045313;28;20049;-62
2023/10/17 13:00:14;;;;;;;13.45;8.35;;;;;;;10.07;77.64;97182.13;5038534;28;20073;-62
2023/10/17 13:02:42;;;;;;;12.10;7.63;;;;;;;9.85;78.65;97188.31;5039600;28;20041;-62
2023/10/17 13:05:10;;;;;;;13.68;7.03;;;;;;;9.95;78.83;97174.13;5046523;28;20633;-62
2023/10/17 13:07:38;;;;;;;13.07;7.88;;;;;;;10.12;77.79;97176.75;5046315;28;20044;-62
2023/10/17 13:10:07;;;;;;;13.02;8.32;;;;;;;10.14;77.64;97176.50;5047643;28;20045;-62
2023/10/17 13:12:33;;;;;;;11.95;7.65;;;;;;;10.20;77.76;97177.34;5047391;28;20041;-61
2023/10/17 13:15:00;;;;;;;15.77;8.68;;;;;;;10.32;78.11;97177.22;5042131;28;20045;-62
2023/10/17 13:17:28;;;;;;;13.40;8.38;;;;;;;10.44;77.18;97172.50;5046518;28;20509;-62
2023/10/17 13:19:57;;;;;;;13.80;7.85;;;;;;;10.40;77.05;97174.84;5043713;28;20052;-62
2023/10/17 13:22:23;;;;;;;15.10;7.95;;;;;;;10.41;77.37;97175.69;5043640;28;20048;-63
2023/10/17 13:24:50;;;;;;;11.98;7.90;;;;;;;10.50;77.42;97166.06;5042308;28;20041;-62
2023/10/17 13:27:17;;;;;;;11.93;7.40;;;;;;;10.72;76.46;97162.44;5045214;28;20041;-62
2023/10/17 13:29:46;;;;;;;14.15;8.45;;;;;;;10.71;76.72;97162.72;5046979;28;20033;-62
2023/10/17 13:32:13;;;;;;;11.48;7.70;;;;;;;10.72;76.30;97162.44;5044374;28;20090;-62
2023/10/17 13:34:40;;;;;;;11.50;7.43;;;;;;;10.86;75.04;97167.44;5035964;28;20041;-63
2023/10/17 13:37:08;;;;;;;13.13;8.77;;;;;;;10.78;75.81;97166.84;5050910;28;20044;-62
2023/10/17 13:39:36;;;;;;;11.52;8.07;;;;;;;10.86;75.79;97162.00;5043680;28;20052;-62
2023/10/17 13:42:04;;;;;;;15.48;8.60;;;;;;;10.74;76.33;97156.78;5044706;28;20127;-62
2023/10/17 13:44:31;;;;;;;15.45;8.07;;;;;;;10.70;76.41;97156.50;5047060;28;20025;-62
2023/10/17 13:46:57;;;;;;;13.80;8.77;;;;;;;10.97;75.78;97161.03;5043699;28;20041;-62
2023/10/17 13:49:24;;;;;;;14.50;8.73;;;;;;;10.84;76.08;97151.44;5045495;28;20059;-62
2023/10/17 13:51:54;;;;;;;12.10;7.40;;;;;;;10.99;74.69;97155.34;5047612;28;20041;-62
2023/10/17 13:54:21;;;;;;;11.80;7.53;;;;;;;11.05;75.30;97152.41;5043622;28;20049;-62
2023/10/17 13:56:48;;;;;;;10.90;7.80;;;;;;;11.11;74.39;97153.28;5039424;28;20094;-62
2023/10/17 13:59:14;;;;;;;13.32;7.68;;;;;;;11.18;74.63;97153.03;5036234;28;20095;-62
2023/10/17 14:01:46;;;;;;;11.52;7.38;;;;;;;11.04;74.67;97153.50;5041799;28;20050;-62
2023/10/17 14:04:13;;;;;;;11.27;7.05;;;;;;;11.10;74.75;97157.06;5044229;28;20041;-62
2023/10/17 14:06:42;;;;;;;13.60;8.35;;;;;;;11.01;75.42;97153.19;5040097;28;20052;-62
2023/10/17 14:09:16;;;;;;;10.02;7.03;;;;;;;11.10;74.95;97148.94;5044881;28;20033;-63
2023/10/17 14:11:46;;;;;;;12.48;7.72;;;;;;;11.12;75.09;97141.34;5038798;28;20038;-62
2023/10/17 14:14:15;;;;;;;11.20;8.13;;;;;;;11.18;74.88;97143.00;5042627;28;20086;-62
2023/10/17 14:16:42;;;;;;;13.10;8.35;;;;;;;11.26;74.61;97141.72;5049412;28;20049;-62
2023/10/17 14:19:28;;;;;;;15.60;7.97;;;;;;;11.23;74.88;97135.97;5042891;28;20045;-62
2023/10/17 14:22:04;;;;;;;18.13;8.90;;;;;;;11.15;75.38;97148.13;5034155;28;20033;-62
2023/10/17 14:27:20;;;;;;;11.95;7.93;;;;;;;11.30;74.45;97142.00;5047062;28;20052;-62